Time;durP1;ratioP1;P1;durP2;ratioP2;P2;SDS_P1;SDS_P2;PMS_P1;PMS_P2;Temp;Humidity;BMP_temperature;BMP_pressure;BME280_temperature;BME280_humidity;BME280_pressure;Samples;Min_cycle;Max_cycle;Signal;HPM_P1;HPM_P2
2022/05/01 00:02:25;;;;;;;5.00;1.70;;;16.10;99.90;;;;;;5068839;28;20413;-84
2022/05/01 00:04:52;;;;;;;3.70;1.50;;;16.30;99.90;;;;;;5068273;28;20389;-87
2022/05/01 00:07:19;;;;;;;3.47;1.45;;;16.40;99.90;;;;;;5068423;28;20371;-87
2022/05/01 00:09:46;;;;;;;4.03;1.50;;;16.50;99.90;;;;;;5067859;28;20897;-88
2022/05/01 00:12:13;;;;;;;4.85;1.60;;;16.50;99.90;;;;;;5067754;28;20442;-84
2022/05/01 00:14:40;;;;;;;4.20;1.60;;;16.70;99.90;;;;;;5073406;28;20375;-93
2022/05/01 00:17:07;;;;;;;4.33;1.50;;;17.00;99.90;;;;;;5068194;28;20388;-88
2022/05/01 00:19:34;;;;;;;3.35;1.42;;;17.40;99.90;;;;;;5068031;28;20461;-84
2022/05/01 00:22:01;;;;;;;4.18;1.70;;;17.50;99.90;;;;;;5067332;28;20416;-89
2022/05/01 00:24:27;;;;;;;3.92;1.40;;;17.80;99.90;;;;;;5068197;28;20758;-92
2022/05/01 00:26:54;;;;;;;2.92;1.38;;;17.90;96.90;;;;;;5067183;28;20393;-84
2022/05/01 00:29:23;;;;;;;4.30;1.45;;;17.80;97.20;;;;;;5066316;28;20394;-87
2022/05/01 00:31:50;;;;;;;3.20;1.40;;;17.80;98.50;;;;;;5068128;28;20446;-83
2022/05/01 00:37:02;;;;;;;4.70;1.50;;;17.80;97.30;;;;;;5071008;28;20393;-82
2022/05/01 00:39:29;;;;;;;3.97;1.60;;;17.90;98.10;;;;;;5069686;28;20955;-82
2022/05/01 00:41:56;;;;;;;2.72;1.40;;;18.00;97.20;;;;;;5068081;28;20402;-83
2022/05/01 00:44:23;;;;;;;3.95;1.38;;;17.90;96.00;;;;;;5067757;28;20809;-84
2022/05/01 00:46:52;;;;;;;4.10;1.35;;;17.90;96.10;;;;;;5067833;28;20392;-83
2022/05/01 00:49:26;;;;;;;3.83;1.50;;;17.80;95.50;;;;;;5068484;28;20394;-89
2022/05/01 00:52:12;;;;;;;3.55;1.40;;;17.60;96.80;;;;;;5070421;28;20370;-84
2022/05/01 00:54:42;;;;;;;3.38;1.40;;;17.80;97.40;;;;;;5068890;28;20378;-84
2022/05/01 00:57:10;;;;;;;2.85;1.27;;;18.00;96.50;;;;;;5067556;28;20390;-92
2022/05/01 00:59:38;;;;;;;3.20;1.30;;;18.10;97.20;;;;;;5067827;28;20401;-84
2022/05/01 01:02:13;;;;;;;4.67;1.50;;;18.50;97.90;;;;;;5068279;28;20441;-84
2022/05/01 01:04:40;;;;;;;2.97;1.40;;;19.00;96.20;;;;;;5067543;28;20385;-83
2022/05/01 01:07:08;;;;;;;4.97;1.40;;;19.50;95.50;;;;;;5063193;28;20385;-83
2022/05/01 01:09:35;;;;;;;4.05;1.35;;;19.70;92.90;;;;;;5079279;28;20389;-90
2022/05/01 01:14:48;;;;;;;3.97;1.50;;;19.60;92.10;;;;;;5068928;28;20822;-88
2022/05/01 01:17:15;;;;;;;4.38;1.50;;;19.60;90.70;;;;;;5068035;28;20457;-85
2022/05/01 01:19:42;;;;;;;2.80;1.23;;;19.60;87.40;;;;;;5067557;28;20379;-83
2022/05/01 01:22:10;;;;;;;5.23;1.40;;;19.40;89.50;;;;;;5069064;28;20416;-87
2022/05/01 01:24:44;;;;;;;3.50;1.20;;;19.70;90.30;;;;;;5068082;28;20382;-86
2022/05/01 01:27:15;;;;;;;2.88;1.40;;;20.40;90.30;;;;;;5067478;28;20462;-87
2022/05/01 01:32:31;;;;;;;3.60;1.20;;;21.70;77.70;;;;;;5067198;28;20417;-83
2022/05/01 01:34:59;;;;;;;3.90;1.10;;;21.30;75.80;;;;;;5067012;28;20378;-82
2022/05/01 01:37:26;;;;;;;3.60;1.30;;;21.30;78.90;;;;;;5066167;28;20488;-84
2022/05/01 01:39:54;;;;;;;2.30;1.10;;;21.40;73.80;;;;;;5067156;28;20460;-87
2022/05/01 01:42:22;;;;;;;4.68;1.20;;;21.20;74.40;;;;;;5067351;28;20402;-83
2022/05/01 01:44:50;;;;;;;3.47;1.20;;;21.10;75.40;;;;;;5066530;28;20758;-83
2022/05/01 01:47:18;;;;;;;2.70;1.10;;;20.80;74.80;;;;;;5053498;28;20880;-84
2022/05/01 01:49:45;;;;;;;2.78;1.20;;;20.90;76.80;;;;;;5066940;28;20386;-88
2022/05/01 01:52:12;;;;;;;4.88;1.20;;;21.60;75.60;;;;;;5068520;28;20431;-84
2022/05/01 01:54:43;;;;;;;1.98;0.95;;;22.70;69.60;;;;;;5070745;28;20378;-87
2022/05/01 01:57:10;;;;;;;3.20;1.20;;;23.20;69.20;;;;;;5067574;28;20730;-90
2022/05/01 01:59:37;;;;;;;3.03;1.10;;;23.40;67.70;;;;;;5067012;28;20370;-83
2022/05/01 02:02:04;;;;;;;3.58;1.20;;;22.90;68.40;;;;;;5066023;28;20421;-84
2022/05/01 02:04:31;;;;;;;4.10;1.27;;;22.30;71.90;;;;;;5065054;28;20398;-84
2022/05/01 02:06:58;;;;;;;2.58;1.20;;;22.10;72.20;;;;;;5066601;28;20401;-83
2022/05/01 02:09:25;;;;;;;4.40;1.20;;;23.20;72.10;;;;;;5066310;28;20445;-84
2022/05/01 02:11:53;;;;;;;2.80;1.25;;;24.20;66.90;;;;;;5066320;28;20428;-82
2022/05/01 02:14:20;;;;;;;4.38;1.10;;;25.00;61.60;;;;;;5066685;28;20385;-87
2022/05/01 02:16:48;;;;;;;3.05;1.15;;;24.80;60.80;;;;;;5067452;28;20379;-81
2022/05/01 02:19:15;;;;;;;3.08;1.20;;;24.60;60.90;;;;;;5066776;28;20414;-88
2022/05/01 02:21:42;;;;;;;4.82;1.17;;;24.70;59.10;;;;;;5067125;28;20414;-83
2022/05/01 02:24:12;;;;;;;3.67;1.10;;;23.80;58.90;;;;;;5066717;28;20378;-92
2022/05/01 02:26:40;;;;;;;4.47;1.13;;;22.80;63.00;;;;;;5066382;28;20923;-83
2022/05/01 02:29:11;;;;;;;4.63;1.27;;;22.20;64.10;;;;;;5065929;28;20423;-87
2022/05/01 02:31:41;;;;;;;4.37;1.10;;;21.50;66.80;;;;;;5066422;28;20378;-85
2022/05/01 02:34:09;;;;;;;2.75;1.10;;;21.20;71.40;;;;;;5066312;28;20390;-82
2022/05/01 02:36:37;;;;;;;3.83;1.00;;;21.00;71.50;;;;;;5064918;28;20390;-82
2022/05/01 02:39:05;;;;;;;9.93;3.88;;;21.10;73.90;;;;;;5066414;28;20382;-83
2022/05/01 02:41:32;;;;;;;4.28;1.27;;;21.20;72.20;;;;;;5066320;28;20398;-83
2022/05/01 02:43:59;;;;;;;3.50;1.10;;;21.20;72.50;;;;;;5066440;28;20473;-84
2022/05/01 02:46:27;;;;;;;3.80;1.20;;;21.40;74.00;;;;;;5065592;28;20386;-83
2022/05/01 02:48:54;;;;;;;2.63;1.10;;;21.50;73.60;;;;;;5067254;28;20396;-82
2022/05/01 02:51:21;;;;;;;3.35;0.90;;;21.80;73.60;;;;;;5066013;28;20387;-86
2022/05/01 02:53:48;;;;;;;3.55;1.02;;;22.50;70.90;;;;;;5064668;28;20373;-82
2022/05/01 02:56:15;;;;;;;5.47;1.20;;;22.80;70.00;;;;;;5067505;28;20394;-85
2022/05/01 02:58:42;;;;;;;4.30;1.30;;;23.50;66.60;;;;;;5069839;28;20397;-85
2022/05/01 03:01:09;;;;;;;5.10;1.33;;;24.00;66.90;;;;;;5067926;28;20832;-87
2022/05/01 03:03:36;;;;;;;4.28;1.48;;;24.40;68.20;;;;;;5070463;28;20464;-86
2022/05/01 03:06:03;;;;;;;5.90;1.40;;;25.60;67.50;;;;;;5064424;28;20374;-83
2022/05/01 03:08:30;;;;;;;4.43;1.40;;;26.30;64.60;;;;;;5073107;28;20426;-86
2022/05/01 03:10:57;;;;;;;4.33;1.60;;;26.00;65.20;;;;;;5071130;28;20381;-85
2022/05/01 03:13:24;;;;;;;5.35;1.60;;;25.00;67.00;;;;;;5069846;28;20862;-84
2022/05/01 03:15:51;;;;;;;4.78;1.50;;;25.20;66.10;;;;;;5070081;28;20390;-85
2022/05/01 03:23:50;;;;;;;5.15;1.60;;;27.00;61.60;;;;;;5071122;28;20443;-86
2022/05/01 03:26:18;;;;;;;5.77;2.20;;;27.80;59.70;;;;;;5070479;28;20385;-87
2022/05/01 03:28:45;;;;;;;7.00;1.70;;;28.60;57.20;;;;;;5075938;28;20427;-82
2022/05/01 03:31:14;;;;;;;6.77;1.70;;;28.90;56.30;;;;;;5074411;28;20409;-81
2022/05/01 03:33:42;;;;;;;7.32;1.80;;;28.70;57.60;;;;;;5074715;28;20816;-83
2022/05/01 03:36:11;;;;;;;9.80;2.20;;;28.90;55.80;;;;;;5074931;28;20407;-83
2022/05/01 03:38:43;;;;;;;5.47;2.20;;;28.50;57.80;;;;;;5068269;28;20635;-86
2022/05/01 03:41:14;;;;;;;7.47;2.00;;;29.20;56.30;;;;;;5068863;28;20384;-87
2022/05/01 03:43:42;;;;;;;6.30;1.93;;;29.70;55.60;;;;;;5068722;28;20390;-86
2022/05/01 03:46:10;;;;;;;6.40;1.83;;;30.10;54.30;;;;;;5068899;28;20850;-88
2022/05/01 03:48:37;;;;;;;5.97;1.70;;;29.70;52.70;;;;;;5068021;28;20695;-86
2022/05/01 03:51:04;;;;;;;4.45;1.80;;;29.80;53.90;;;;;;5069473;28;20435;-87
2022/05/01 03:53:31;;;;;;;6.20;2.25;;;29.80;53.20;;;;;;5072703;28;20393;-86
2022/05/01 03:55:58;;;;;;;6.65;2.33;;;29.30;54.50;;;;;;5069253;28;20370;-87
2022/05/01 03:58:25;;;;;;;7.97;2.45;;;29.10;53.10;;;;;;5074204;28;20384;-87
2022/05/01 04:00:52;;;;;;;6.93;2.40;;;29.00;53.70;;;;;;5079448;28;20389;-88
2022/05/01 04:03:20;;;;;;;7.63;1.92;;;28.60;56.70;;;;;;5068487;28;20485;-89
2022/05/01 04:05:48;;;;;;;9.13;2.28;;;28.70;55.70;;;;;;5067729;28;20385;-85
2022/05/01 04:08:15;;;;;;;7.57;2.00;;;28.60;57.20;;;;;;5067885;28;20394;-85
2022/05/01 04:10:46;;;;;;;8.77;2.00;;;28.10;56.60;;;;;;5067679;28;20393;-86
2022/05/01 04:13:14;;;;;;;11.43;2.17;;;27.50;59.60;;;;;;5067873;28;20838;-85
2022/05/01 04:15:41;;;;;;;5.82;1.90;;;27.60;60.10;;;;;;5067821;28;20393;-87
2022/05/01 04:18:09;;;;;;;6.38;2.00;;;28.30;59.50;;;;;;5068335;28;20386;-86
2022/05/01 04:20:37;;;;;;;6.78;1.85;;;27.80;59.30;;;;;;5067696;28;20472;-89
2022/05/01 04:23:05;;;;;;;8.32;1.90;;;27.20;61.30;;;;;;5077175;28;20402;-82
2022/05/01 04:25:36;;;;;;;10.02;2.10;;;26.90;62.80;;;;;;5075851;28;20415;-82
2022/05/01 04:28:04;;;;;;;8.18;1.83;;;26.50;64.00;;;;;;5076393;28;20477;-90
2022/05/01 04:30:32;;;;;;;6.55;1.90;;;26.40;64.30;;;;;;5075629;28;20413;-82
2022/05/01 04:33:07;;;;;;;9.30;2.30;;;26.80;64.40;;;;;;5078849;28;20409;-83
2022/05/01 04:35:37;;;;;;;7.05;1.80;;;27.20;64.70;;;;;;5076885;28;20373;-87
2022/05/01 04:38:07;;;;;;;8.02;1.80;;;27.50;62.80;;;;;;5078146;28;20363;-82
2022/05/01 04:40:49;;;;;;;6.53;1.90;;;27.70;62.80;;;;;;5079481;28;20370;-86
2022/05/01 04:43:18;;;;;;;7.95;1.90;;;27.00;64.40;;;;;;5073086;28;20420;-83
2022/05/01 04:45:49;;;;;;;8.03;2.10;;;27.40;64.10;;;;;;5070155;28;20370;-83
2022/05/01 04:48:20;;;;;;;10.52;3.35;;;28.10;62.20;;;;;;5075389;28;20382;-83
2022/05/01 04:50:48;;;;;;;9.18;2.65;;;28.60;60.00;;;;;;5073248;28;20371;-84
2022/05/01 04:53:20;;;;;;;9.07;1.90;;;28.50;59.80;;;;;;5078788;28;20396;-88
2022/05/01 04:55:49;;;;;;;7.07;1.80;;;28.20;61.60;;;;;;5076643;28;20854;-91
2022/05/01 04:58:16;;;;;;;6.15;1.98;;;27.80;61.20;;;;;;5076354;28;20465;-88
2022/05/01 05:00:46;;;;;;;4.78;1.70;;;27.50;63.00;;;;;;5075211;28;20370;-83
2022/05/01 05:03:13;;;;;;;7.50;1.70;;;28.10;61.40;;;;;;5078931;28;20398;-86
2022/05/01 05:05:42;;;;;;;8.00;2.10;;;28.10;59.90;;;;;;5077114;28;20386;-82
2022/05/01 05:10:54;;;;;;;6.93;2.08;;;26.50;63.70;;;;;;5077854;28;20372;-82
2022/05/01 05:13:27;;;;;;;10.27;2.33;;;26.00;65.40;;;;;;5073402;28;20374;-83
2022/05/01 05:15:58;;;;;;;8.33;2.00;;;25.30;66.90;;;;;;5068102;28;20418;-83
2022/05/01 05:18:25;;;;;;;7.28;1.90;;;24.90;69.30;;;;;;5066069;28;20435;-88
2022/05/01 05:20:52;;;;;;;8.70;1.90;;;24.80;70.80;;;;;;5067375;28;20416;-88
2022/05/01 05:23:19;;;;;;;6.13;1.90;;;24.90;70.00;;;;;;5069891;28;20410;-85
2022/05/01 05:25:46;;;;;;;7.63;1.70;;;25.20;69.70;;;;;;5066524;28;20388;-84
2022/05/01 05:28:13;;;;;;;6.65;1.98;;;25.30;67.10;;;;;;5066827;28;20870;-84
2022/05/01 05:30:40;;;;;;;6.70;1.70;;;24.70;70.60;;;;;;5067197;28;20374;-84
2022/05/01 05:33:07;;;;;;;7.88;1.88;;;24.50;70.30;;;;;;5066182;28;20382;-84
2022/05/01 05:35:36;;;;;;;7.35;1.92;;;24.30;72.20;;;;;;5066686;28;20386;-84
2022/05/01 05:38:03;;;;;;;9.23;1.70;;;24.30;72.70;;;;;;5067214;28;20742;-84
2022/05/01 05:40:30;;;;;;;10.85;2.00;;;24.20;72.90;;;;;;5066386;28;20408;-84
2022/05/01 05:42:57;;;;;;;8.98;1.80;;;24.00;73.40;;;;;;5066857;28;20405;-86
2022/05/01 05:45:24;;;;;;;7.47;2.20;;;23.90;75.20;;;;;;5066561;28;20381;-85
2022/05/01 05:47:51;;;;;;;6.90;2.00;;;23.70;76.40;;;;;;5066587;28;20406;-84
2022/05/01 05:50:18;;;;;;;5.50;2.00;;;23.50;77.20;;;;;;5065523;28;20498;-85
2022/05/01 05:52:46;;;;;;;8.63;1.90;;;23.40;78.20;;;;;;5065203;28;20397;-85
2022/05/01 05:55:13;;;;;;;10.38;2.08;;;23.20;78.90;;;;;;5066456;28;20373;-85
2022/05/01 05:57:40;;;;;;;7.10;1.88;;;23.10;80.40;;;;;;5066557;28;20964;-83
2022/05/01 06:00:08;;;;;;;8.10;2.10;;;23.00;82.60;;;;;;5066512;28;20374;-83
2022/05/01 06:02:35;;;;;;;7.13;2.00;;;22.80;82.90;;;;;;5066377;28;20402;-84
2022/05/01 06:05:02;;;;;;;6.97;2.00;;;22.80;83.30;;;;;;5066604;28;20381;-84
2022/05/01 06:07:29;;;;;;;11.93;2.20;;;22.70;84.60;;;;;;5066150;28;20766;-85
2022/05/01 06:09:56;;;;;;;9.93;2.10;;;22.60;85.40;;;;;;5064910;28;20386;-85
2022/05/01 06:12:23;;;;;;;9.27;2.35;;;22.40;87.30;;;;;;5064163;28;20731;-88
2022/05/01 06:14:50;;;;;;;6.85;1.80;;;22.30;88.50;;;;;;5066460;28;20381;-85
2022/05/01 06:17:17;;;;;;;9.10;2.28;;;22.30;89.40;;;;;;5065600;28;20394;-85
2022/05/01 06:19:44;;;;;;;7.90;1.95;;;22.10;90.10;;;;;;5066017;28;21138;-84
2022/05/01 06:22:11;;;;;;;10.05;2.00;;;22.00;91.30;;;;;;5066051;28;20775;-85
2022/05/01 06:24:38;;;;;;;8.90;2.13;;;21.90;91.70;;;;;;5066119;28;20370;-85
2022/05/01 06:27:05;;;;;;;9.75;2.40;;;21.90;92.30;;;;;;5065121;28;20469;-85
2022/05/01 06:29:32;;;;;;;10.63;4.32;;;21.90;92.50;;;;;;5063667;28;20460;-86
2022/05/01 06:31:59;;;;;;;12.23;5.88;;;22.00;92.60;;;;;;5070519;28;20381;-88
2022/05/01 06:34:26;;;;;;;8.07;4.20;;;21.90;93.00;;;;;;5070426;28;20377;-85
2022/05/01 06:36:54;;;;;;;8.45;2.67;;;21.80;93.60;;;;;;5069743;28;20392;-89
2022/05/01 06:39:21;;;;;;;9.52;3.20;;;21.60;94.20;;;;;;5069755;28;20370;-83
2022/05/01 06:41:48;;;;;;;13.20;5.53;;;21.50;95.00;;;;;;5069151;28;20403;-87
2022/05/01 06:44:15;;;;;;;14.27;6.35;;;21.40;95.60;;;;;;5069952;28;20378;-83
2022/05/01 06:46:42;;;;;;;16.98;6.10;;;21.20;96.20;;;;;;5069538;28;20385;-84
2022/05/01 06:49:09;;;;;;;11.70;4.00;;;21.00;97.30;;;;;;5069644;28;20381;-85
2022/05/01 06:51:36;;;;;;;9.73;2.88;;;20.90;98.10;;;;;;5070040;28;20410;-83
2022/05/01 06:54:06;;;;;;;10.85;2.88;;;20.70;98.80;;;;;;5069188;28;20385;-83
2022/05/01 06:56:34;;;;;;;8.80;3.30;;;20.50;99.60;;;;;;5069441;28;20805;-90
2022/05/01 06:59:02;;;;;;;13.00;4.80;;;20.40;99.90;;;;;;5069066;28;20465;-84
2022/05/01 07:01:29;;;;;;;27.38;18.75;;;20.20;99.90;;;;;;5068803;28;20412;-89
2022/05/01 07:03:56;;;;;;;170.02;134.57;;;20.00;99.90;;;;;;5069282;28;20940;-87
2022/05/01 07:06:23;;;;;;;151.30;119.65;;;19.90;99.90;;;;;;5068347;28;20373;-83
2022/05/01 07:08:50;;;;;;;102.03;60.78;;;19.70;99.90;;;;;;5063182;28;20428;-82
2022/05/01 07:11:17;;;;;;;68.40;37.23;;;19.60;99.90;;;;;;5049269;28;20374;-84
2022/05/01 07:13:44;;;;;;;33.90;20.45;;;19.50;99.90;;;;;;5049196;28;20739;-82
2022/05/01 07:16:11;;;;;;;36.50;20.45;;;19.60;99.90;;;;;;5055018;28;20391;-84
2022/05/01 07:18:38;;;;;;;15.00;6.32;;;19.60;99.90;;;;;;5068559;28;20390;-84
2022/05/01 07:21:05;;;;;;;16.23;6.38;;;19.60;99.90;;;;;;5068972;28;20924;-84
2022/05/01 07:23:32;;;;;;;13.48;5.55;;;19.60;99.90;;;;;;5068194;28;20426;-83
2022/05/01 07:25:59;;;;;;;10.88;4.30;;;19.60;99.90;;;;;;5068942;28;20389;-85
2022/05/01 07:28:26;;;;;;;10.75;2.90;;;19.60;99.90;;;;;;5068590;28;20448;-84
2022/05/01 07:30:53;;;;;;;10.32;2.53;;;19.60;99.90;;;;;;5067421;28;20378;-84
2022/05/01 07:33:20;;;;;;;9.77;2.80;;;19.60;99.90;;;;;;5068239;28;20503;-84
2022/05/01 07:35:47;;;;;;;9.73;2.60;;;19.50;99.90;;;;;;5067645;28;20476;-82
2022/05/01 07:38:14;;;;;;;8.77;2.80;;;19.50;99.90;;;;;;5068498;28;20465;-85
2022/05/01 07:41:04;;;;;;;11.90;5.57;;;19.40;99.90;;;;;;5068908;28;20390;-83
2022/05/01 07:43:31;;;;;;;14.80;6.88;;;19.30;99.90;;;;;;5065344;28;20414;-85
2022/05/01 07:45:58;;;;;;;13.85;5.85;;;19.30;99.90;;;;;;5068205;28;20461;-84
2022/05/01 07:48:25;;;;;;;12.35;4.72;;;19.10;99.90;;;;;;5070576;28;20798;-84
2022/05/01 07:50:51;;;;;;;12.30;5.05;;;19.00;99.90;;;;;;5066719;28;20494;-85
2022/05/01 07:53:18;;;;;;;13.20;4.55;;;19.00;99.90;;;;;;5066788;28;20413;-83
2022/05/01 07:55:45;;;;;;;9.80;4.10;;;18.90;99.90;;;;;;5068020;28;20469;-85
2022/05/01 07:58:12;;;;;;;13.93;4.50;;;18.90;99.90;;;;;;5067815;28;20393;-84
2022/05/01 08:00:39;;;;;;;11.83;4.17;;;18.90;99.90;;;;;;5068100;28;20390;-84
2022/05/01 08:05:51;;;;;;;12.07;5.78;;;18.80;99.90;;;;;;5068343;28;20447;-83
2022/05/01 08:08:18;;;;;;;20.07;12.73;;;18.60;99.90;;;;;;5065596;28;20398;-87
2022/05/01 08:10:45;;;;;;;22.60;13.13;;;18.50;99.90;;;;;;5068323;28;20386;-86
2022/05/01 08:13:12;;;;;;;24.38;17.13;;;18.40;99.90;;;;;;5068229;28;20433;-88
2022/05/01 08:15:39;;;;;;;23.33;15.50;;;18.30;99.90;;;;;;5068171;28;20503;-84
2022/05/01 08:21:07;;;;;;;16.48;9.55;;;18.00;99.90;;;;;;5025273;28;20781;-84
2022/05/01 08:23:36;;;;;;;23.77;14.43;;;17.90;99.90;;;;;;5025333;28;20907;-85
2022/05/01 08:26:05;;;;;;;32.80;18.42;;;17.80;99.90;;;;;;5037065;28;20483;-84
2022/05/01 08:28:34;;;;;;;14.13;7.00;;;17.80;99.90;;;;;;5047060;28;20463;-86
2022/05/01 08:31:02;;;;;;;14.55;7.32;;;17.90;99.90;;;;;;5036985;28;20406;-87
2022/05/01 08:33:29;;;;;;;13.88;6.93;;;17.70;99.90;;;;;;5044846;28;20879;-84
2022/05/01 08:35:56;;;;;;;11.93;5.05;;;17.60;99.90;;;;;;5043434;28;20773;-88
2022/05/01 08:38:24;;;;;;;10.93;4.95;;;17.50;99.90;;;;;;5040643;28;20460;-90
2022/05/01 08:40:52;;;;;;;10.55;4.78;;;17.40;99.90;;;;;;5043236;28;20390;-87
2022/05/01 08:43:21;;;;;;;7.17;3.40;;;17.30;99.90;;;;;;5035222;28;20968;-83
2022/05/01 08:45:54;;;;;;;9.80;3.75;;;17.20;99.90;;;;;;5044158;28;20392;-87
2022/05/01 08:48:26;;;;;;;13.98;4.50;;;17.10;99.90;;;;;;5045142;28;20441;-86
2022/05/01 08:50:54;;;;;;;12.88;6.22;;;17.00;99.90;;;;;;5044653;28;20494;-85
2022/05/01 08:53:23;;;;;;;9.35;3.97;;;16.90;99.90;;;;;;5045208;28;20400;-84
2022/05/01 08:55:52;;;;;;;9.13;3.70;;;16.80;99.90;;;;;;5051356;28;20525;-87
2022/05/01 08:58:19;;;;;;;9.77;3.33;;;16.70;99.90;;;;;;5049397;28;20879;-85
2022/05/01 09:00:49;;;;;;;11.00;3.42;;;16.60;99.90;;;;;;5067168;28;20480;-83
2022/05/01 09:03:19;;;;;;;8.38;3.45;;;16.60;99.90;;;;;;5067275;28;20406;-83
2022/05/01 09:05:46;;;;;;;10.98;3.42;;;16.50;99.90;;;;;;5066637;28;20378;-84
2022/05/01 09:08:13;;;;;;;9.23;3.13;;;16.40;99.90;;;;;;5068034;28;20451;-87
2022/05/01 09:10:43;;;;;;;9.80;3.77;;;16.30;99.90;;;;;;5066838;28;20522;-85
2022/05/01 09:13:10;;;;;;;10.00;2.95;;;16.30;99.90;;;;;;5066651;28;20432;-85
2022/05/01 09:15:41;;;;;;;10.48;3.00;;;16.20;99.90;;;;;;5066613;28;20394;-84
2022/05/01 09:18:09;;;;;;;9.20;3.20;;;16.20;99.90;;;;;;5066965;28;20437;-83
2022/05/01 09:20:42;;;;;;;11.55;4.35;;;16.10;99.90;;;;;;5067003;28;20413;-83
2022/05/01 09:23:09;;;;;;;10.15;4.20;;;16.10;99.90;;;;;;5066731;28;20766;-83
2022/05/01 09:25:36;;;;;;;12.73;4.55;;;16.00;99.90;;;;;;5066479;28;20386;-82
2022/05/01 09:28:23;;;;;;;8.13;4.10;;;16.00;99.90;;;;;;5067109;28;20719;-87
2022/05/01 09:30:50;;;;;;;10.47;4.53;;;15.90;99.90;;;;;;5066978;28;20376;-88
2022/05/01 09:33:21;;;;;;;10.60;4.00;;;15.80;99.90;;;;;;5066675;28;20877;-85
2022/05/01 09:35:49;;;;;;;10.27;4.00;;;15.80;99.90;;;;;;5067095;28;20380;-86
2022/05/01 09:38:22;;;;;;;10.88;3.60;;;15.80;99.90;;;;;;5066513;28;20413;-87
2022/05/01 09:40:55;;;;;;;11.32;3.78;;;15.70;99.90;;;;;;5067078;28;20375;-85
2022/05/01 09:43:42;;;;;;;9.82;3.40;;;15.70;99.90;;;;;;5066809;28;20803;-82
2022/05/01 09:46:13;;;;;;;11.00;3.88;;;15.60;99.90;;;;;;5046839;28;20451;-87
2022/05/01 09:48:43;;;;;;;10.45;3.80;;;15.60;99.90;;;;;;5051374;28;20378;-87
2022/05/01 09:51:18;;;;;;;9.73;3.73;;;15.50;99.90;;;;;;5066648;28;20854;-87
2022/05/01 09:53:46;;;;;;;9.93;3.88;;;15.50;99.90;;;;;;5066106;28;20430;-87
2022/05/01 09:56:13;;;;;;;9.20;3.70;;;15.40;99.90;;;;;;5066744;28;20866;-85
2022/05/01 09:58:43;;;;;;;10.63;3.90;;;15.40;99.90;;;;;;5066217;28;20925;-86
2022/05/01 10:01:15;;;;;;;11.88;3.70;;;15.40;99.90;;;;;;5066571;28;20378;-87
2022/05/01 10:03:46;;;;;;;9.43;3.90;;;15.30;99.90;;;;;;5066083;28;20390;-85
2022/05/01 10:06:15;;;;;;;8.50;3.50;;;15.30;99.90;;;;;;5069752;28;20385;-88
2022/05/01 10:08:45;;;;;;;11.48;3.60;;;15.20;99.90;;;;;;5070576;28;20398;-87
2022/05/01 10:11:14;;;;;;;14.45;4.90;;;15.20;99.90;;;;;;5070681;28;20459;-83
2022/05/01 10:13:43;;;;;;;13.05;4.70;;;15.20;99.90;;;;;;5070421;28;20866;-86
2022/05/01 10:16:15;;;;;;;15.35;5.20;;;15.20;99.90;;;;;;5070033;28;20390;-83
2022/05/01 10:18:46;;;;;;;12.87;5.00;;;15.20;99.90;;;;;;5070281;28;20422;-84
2022/05/01 10:21:14;;;;;;;12.60;4.60;;;15.10;99.90;;;;;;5069387;28;20396;-86
2022/05/01 10:23:41;;;;;;;14.98;5.32;;;15.10;99.90;;;;;;5069196;28;20405;-84
2022/05/01 10:26:37;;;;;;;13.07;4.95;;;15.20;99.90;;;;;;5069564;28;20508;-85
2022/05/01 10:29:24;;;;;;;10.47;4.53;;;15.20;99.90;;;;;;5069958;28;20385;-85
2022/05/01 10:32:22;;;;;;;12.98;4.55;;;15.20;99.90;;;;;;5069875;28;20438;-86
2022/05/01 10:35:21;;;;;;;12.67;4.30;;;15.30;99.90;;;;;;5070373;28;20386;-87
2022/05/01 10:38:07;;;;;;;10.63;4.40;;;15.40;99.90;;;;;;5070050;28;20389;-83
2022/05/01 10:40:53;;;;;;;11.53;4.93;;;15.50;99.90;;;;;;5070140;28;20873;-85
2022/05/01 10:43:38;;;;;;;12.85;5.20;;;15.60;99.90;;;;;;5069811;28;20397;-84
2022/05/01 10:46:19;;;;;;;17.13;7.72;;;15.70;99.90;;;;;;5069023;28;20378;-84
2022/05/01 10:48:47;;;;;;;20.10;10.68;;;15.70;99.90;;;;;;5061693;28;20378;-84
2022/05/01 10:51:39;;;;;;;17.38;8.23;;;15.70;99.90;;;;;;5069683;28;20444;-87
2022/05/01 10:54:17;;;;;;;15.82;7.95;;;15.70;99.90;;;;;;5069403;28;20726;-82
2022/05/01 10:56:46;;;;;;;12.60;4.95;;;15.70;99.90;;;;;;5070281;28;20396;-84
2022/05/01 10:59:34;;;;;;;13.10;5.38;;;15.90;99.90;;;;;;5069603;28;20400;-86
2022/05/01 11:02:03;;;;;;;14.63;5.40;;;15.80;99.90;;;;;;5067725;28;20398;-84
2022/05/01 11:04:39;;;;;;;17.55;7.88;;;15.90;99.90;;;;;;5068918;28;20386;-84
2022/05/01 11:07:10;;;;;;;14.95;4.30;;;15.90;99.90;;;;;;5069655;28;20365;-83
2022/05/01 11:09:37;;;;;;;12.88;3.80;;;16.00;99.90;;;;;;5069847;28;20370;-83
2022/05/01 11:12:10;;;;;;;11.93;3.65;;;16.00;99.90;;;;;;5070662;28;20402;-85
2022/05/01 11:14:42;;;;;;;12.55;3.70;;;16.00;99.90;;;;;;5069407;28;20393;-85
2022/05/01 11:17:12;;;;;;;11.57;4.00;;;16.10;99.90;;;;;;5068885;28;20494;-85
2022/05/01 11:19:46;;;;;;;12.50;3.90;;;16.20;99.90;;;;;;5069400;28;20394;-87
2022/05/01 11:22:13;;;;;;;10.82;3.53;;;16.20;99.90;;;;;;5068784;28;20422;-83
2022/05/01 11:24:50;;;;;;;12.45;4.03;;;16.20;99.90;;;;;;5070830;28;20377;-87
2022/05/01 11:27:18;;;;;;;12.98;3.92;;;16.20;99.90;;;;;;5067408;28;20694;-84
2022/05/01 11:30:27;;;;;;;13.85;4.20;;;16.20;99.90;;;;;;5068763;28;20381;-87
2022/05/01 11:33:01;;;;;;;15.90;4.95;;;16.30;99.90;;;;;;5006879;28;20474;-86
2022/05/01 11:36:01;;;;;;;14.27;5.78;;;16.40;99.90;;;;;;5006258;28;20763;-83
2022/05/01 11:38:53;;;;;;;22.15;8.77;;;16.40;99.90;;;;;;5006691;28;20394;-82
2022/05/01 11:41:42;;;;;;;22.80;8.95;;;16.40;99.90;;;;;;5006610;28;20395;-83
2022/05/01 11:44:25;;;;;;;29.30;9.27;;;16.30;99.90;;;;;;4991935;28;20406;-85
2022/05/01 11:46:52;;;;;;;21.33;8.32;;;16.30;99.90;;;;;;5006682;28;20387;-83
2022/05/01 11:49:19;;;;;;;20.43;7.60;;;16.20;99.90;;;;;;5006106;28;20403;-82
2022/05/01 11:51:47;;;;;;;19.65;7.63;;;16.10;99.90;;;;;;5005980;28;20395;-85
2022/05/01 11:54:18;;;;;;;18.10;7.50;;;16.10;99.90;;;;;;5006187;28;20410;-84
2022/05/01 12:02:27;;;;;;;20.27;7.00;;;16.00;99.90;;;;;;5005687;28;20414;-83
2022/05/01 12:05:04;;;;;;;19.73;6.87;;;15.90;99.90;;;;;;5005238;28;20497;-86
2022/05/01 12:07:32;;;;;;;20.38;5.85;;;16.00;99.90;;;;;;5013242;28;20446;-85
2022/05/01 12:09:59;;;;;;;16.85;5.95;;;15.90;99.90;;;;;;5067453;28;20435;-85
2022/05/01 12:12:29;;;;;;;20.80;6.20;;;15.90;99.90;;;;;;5067979;28;20378;-83
2022/05/01 12:15:03;;;;;;;20.23;5.75;;;15.90;99.90;;;;;;5068323;28;20401;-83
2022/05/01 12:17:32;;;;;;;21.03;5.90;;;15.90;99.90;;;;;;5051096;28;20475;-86
2022/05/01 12:20:00;;;;;;;18.52;5.30;;;15.90;99.90;;;;;;5067624;28;20386;-86
2022/05/01 12:22:37;;;;;;;17.10;4.72;;;15.80;99.90;;;;;;5067722;28;20418;-83
2022/05/01 12:25:10;;;;;;;16.67;4.65;;;15.70;99.90;;;;;;5067352;28;21163;-83
2022/05/01 12:27:41;;;;;;;13.57;3.97;;;15.60;99.90;;;;;;5067640;28;20390;-84
2022/05/01 12:30:09;;;;;;;16.85;3.92;;;15.50;99.90;;;;;;5067595;28;21953;-85
2022/05/01 12:32:37;;;;;;;15.15;4.28;;;15.50;99.90;;;;;;5067941;28;20868;-83
2022/05/01 12:35:05;;;;;;;13.95;4.50;;;15.50;99.90;;;;;;5067551;28;20773;-83
2022/05/01 12:37:34;;;;;;;20.98;5.32;;;15.30;99.90;;;;;;5067936;28;20387;-84
2022/05/01 12:40:12;;;;;;;22.83;5.63;;;15.30;99.90;;;;;;5067940;28;20415;-84
2022/05/01 12:45:36;;;;;;;15.52;4.53;;;15.20;99.90;;;;;;5068267;28;20881;-83
2022/05/01 12:48:05;;;;;;;14.02;4.50;;;15.10;99.90;;;;;;5067338;28;20401;-83
2022/05/01 12:50:35;;;;;;;13.65;3.85;;;15.00;99.90;;;;;;5066695;28;20408;-83
2022/05/01 12:53:27;;;;;;;16.98;4.10;;;14.90;99.90;;;;;;5067858;28;20378;-83
2022/05/01 12:55:55;;;;;;;14.52;4.00;;;14.80;99.90;;;;;;5048035;28;20426;-83
2022/05/01 12:58:30;;;;;;;13.83;3.60;;;14.70;99.90;;;;;;5060687;28;20403;-84
2022/05/01 13:00:59;;;;;;;15.27;3.55;;;14.70;99.90;;;;;;5066791;28;20877;-82
2022/05/01 13:03:29;;;;;;;27.27;5.20;;;14.70;99.90;;;;;;5067868;28;20410;-85
2022/05/01 13:06:09;;;;;;;38.30;5.78;;;14.60;99.90;;;;;;5067874;28;20382;-87
2022/05/01 13:08:41;;;;;;;30.85;5.18;;;14.60;99.90;;;;;;5067110;28;20386;-85
2022/05/01 13:11:27;;;;;;;22.63;4.15;;;14.60;99.90;;;;;;5065543;28;20417;-85
2022/05/01 13:14:08;;;;;;;12.50;3.50;;;14.70;99.90;;;;;;5067168;28;20382;-87
2022/05/01 13:16:35;;;;;;;16.92;3.85;;;14.70;99.90;;;;;;5067141;28;20797;-86
2022/05/01 13:19:03;;;;;;;17.83;3.42;;;14.70;99.90;;;;;;5066336;28;21098;-85
2022/05/01 13:21:32;;;;;;;16.40;3.40;;;14.70;99.90;;;;;;5067120;28;20378;-84
2022/05/01 13:24:08;;;;;;;12.13;3.30;;;14.70;99.90;;;;;;5067212;28;20885;-85
2022/05/01 13:26:35;;;;;;;14.73;3.03;;;14.60;99.90;;;;;;5067477;28;20497;-87